createdAt,value
2023-02-28T00:01:46.613Z,40.30
2023-02-28T00:04:13.147Z,40.20
2023-02-28T00:06:39.678Z,40.40
2023-02-28T00:09:06.186Z,40.30
2023-02-28T00:11:32.765Z,40.20
2023-02-28T00:13:59.283Z,40.20
2023-02-28T00:16:25.799Z,40.20
2023-02-28T00:18:52.370Z,40.20
2023-02-28T00:21:22.618Z,40.30
2023-02-28T00:23:49.138Z,40.30
2023-02-28T00:29:10.613Z,40.00
2023-02-28T00:31:37.123Z,40.20
2023-02-28T00:34:03.631Z,40.20
2023-02-28T00:36:34.626Z,40.20
2023-02-28T00:39:01.126Z,40.20
2023-02-28T00:41:27.933Z,40.20
2023-02-28T00:43:54.688Z,40.20
2023-02-28T00:46:21.257Z,40.20
2023-02-28T00:48:47.775Z,40.20
2023-02-28T00:51:14.280Z,40.10
2023-02-28T00:53:40.772Z,40.00
2023-02-28T00:56:07.269Z,40.00
2023-02-28T00:58:33.767Z,40.00
2023-02-28T01:01:00.302Z,40.10
2023-02-28T01:03:26.833Z,40.10
2023-02-28T01:05:53.355Z,40.00
2023-02-28T01:08:19.862Z,39.90
2023-02-28T01:10:46.375Z,40.00
2023-02-28T01:13:12.874Z,40.10
2023-02-28T01:15:39.477Z,40.00
2023-02-28T01:18:06.002Z,40.00
2023-02-28T01:20:32.556Z,39.90
2023-02-28T01:22:59.061Z,39.80
2023-02-28T01:25:25.610Z,39.90
2023-02-28T01:27:52.123Z,40.00
2023-02-28T01:30:18.648Z,40.00
2023-02-28T01:32:45.161Z,40.00
2023-02-28T01:35:11.663Z,40.00
2023-02-28T01:37:38.161Z,40.00
2023-02-28T01:40:04.657Z,39.80
2023-02-28T01:42:31.194Z,40.00
2023-02-28T01:44:57.711Z,40.00
2023-02-28T01:47:24.210Z,39.80
2023-02-28T01:49:50.705Z,39.90
2023-02-28T01:52:17.200Z,39.80
2023-02-28T01:54:43.693Z,39.70
2023-02-28T01:57:10.210Z,40.00
2023-02-28T01:59:40.672Z,39.80
2023-02-28T02:02:07.224Z,39.80
2023-02-28T02:04:33.723Z,39.80
2023-02-28T02:07:04.691Z,39.80
2023-02-28T02:09:31.178Z,39.70
2023-02-28T02:11:57.684Z,39.70
2023-02-28T02:14:24.179Z,39.80
2023-02-28T02:16:50.680Z,39.80
2023-02-28T02:19:17.179Z,39.70
2023-02-28T02:21:43.669Z,39.70
2023-02-28T02:24:10.167Z,39.80
2023-02-28T02:26:36.686Z,39.80
2023-02-28T02:29:03.170Z,39.80
2023-02-28T02:31:29.975Z,39.80
2023-02-28T02:33:56.633Z,39.70
2023-02-28T02:36:23.124Z,39.70
2023-02-28T02:38:49.618Z,39.70
2023-02-28T02:41:16.107Z,39.60
2023-02-28T02:43:42.588Z,39.70
2023-02-28T02:46:09.079Z,39.70
2023-02-28T02:48:35.583Z,39.50
2023-02-28T02:51:02.104Z,39.60
2023-02-28T02:53:28.587Z,39.70
2023-02-28T02:55:55.105Z,39.40
2023-02-28T02:58:21.580Z,39.70
2023-02-28T03:00:48.142Z,39.60
2023-02-28T03:03:14.631Z,39.60
2023-02-28T03:05:41.137Z,39.60
2023-02-28T03:08:07.626Z,39.60
2023-02-28T03:10:34.140Z,39.50
2023-02-28T03:13:00.622Z,39.40
2023-02-28T03:15:27.124Z,39.60
2023-02-28T03:17:53.576Z,39.60
2023-02-28T03:20:20.045Z,39.40
2023-02-28T03:22:46.518Z,39.50
2023-02-28T03:25:16.759Z,39.60
2023-02-28T03:27:43.238Z,39.50
2023-02-28T03:30:10.690Z,39.50
2023-02-28T03:32:37.237Z,39.20
2023-02-28T03:35:03.822Z,39.40
2023-02-28T03:37:30.343Z,39.40
2023-02-28T03:39:56.830Z,39.50
2023-02-28T03:42:23.340Z,39.30
2023-02-28T03:44:49.831Z,39.40
2023-02-28T03:47:16.309Z,39.30
2023-02-28T03:49:42.800Z,39.30
2023-02-28T03:52:09.284Z,39.30
2023-02-28T03:54:35.748Z,39.30
2023-02-28T03:57:02.214Z,39.30
2023-02-28T03:59:28.693Z,39.20
2023-02-28T04:01:55.236Z,39.30
2023-02-28T04:04:21.816Z,39.10
2023-02-28T04:06:49.229Z,39.40
2023-02-28T04:09:17.293Z,39.20
2023-02-28T04:11:43.808Z,39.30
2023-02-28T04:14:10.290Z,39.20
2023-02-28T04:16:36.884Z,39.20
2023-02-28T04:19:03.394Z,39.20
2023-02-28T04:21:30.168Z,38.90
2023-02-28T04:23:56.842Z,39.20
2023-02-28T04:26:23.337Z,39.00
2023-02-28T04:28:49.834Z,39.00
2023-02-28T04:31:16.378Z,39.10
2023-02-28T04:33:42.908Z,38.90
2023-02-28T04:36:09.446Z,39.10
2023-02-28T04:38:35.916Z,39.00
2023-02-28T04:41:02.421Z,39.00
2023-02-28T04:43:28.901Z,39.00
2023-02-28T04:45:55.398Z,39.00
2023-02-28T04:48:22.446Z,39.00
2023-02-28T04:50:48.959Z,38.90
2023-02-28T04:53:15.465Z,39.00
2023-02-28T04:55:41.945Z,38.80
2023-02-28T04:58:10.029Z,38.70
2023-02-28T05:00:41.002Z,38.90
2023-02-28T05:03:07.496Z,38.90
2023-02-28T05:05:33.960Z,38.90
2023-02-28T05:08:00.430Z,38.70
2023-02-28T05:10:26.899Z,38.90
2023-02-28T05:12:53.364Z,38.80
2023-02-28T05:15:19.820Z,38.70
2023-02-28T05:17:46.306Z,38.80
2023-02-28T05:20:15.690Z,38.90
2023-02-28T05:22:42.569Z,38.80
2023-02-28T05:25:09.072Z,38.70
2023-02-28T05:27:35.545Z,38.80
2023-02-28T05:30:02.032Z,38.80
2023-02-28T05:32:28.546Z,38.80
2023-02-28T05:34:55.059Z,38.70
2023-02-28T05:37:22.728Z,38.70
2023-02-28T05:39:49.268Z,38.50
2023-02-28T05:42:15.752Z,38.60
2023-02-28T05:44:42.236Z,38.60
2023-02-28T05:47:08.727Z,38.60
2023-02-28T05:49:35.201Z,38.60
2023-02-28T05:52:01.713Z,38.50
2023-02-28T05:54:28.810Z,38.50
2023-02-28T05:56:55.289Z,38.50
2023-02-28T05:59:21.778Z,38.60
2023-02-28T06:01:48.257Z,38.60
2023-02-28T06:04:30.418Z,38.50
2023-02-28T06:06:57.809Z,38.50
2023-02-28T06:09:24.277Z,38.60
2023-02-28T06:11:50.756Z,38.50
2023-02-28T06:14:17.258Z,38.50
2023-02-28T06:16:43.861Z,38.50
2023-02-28T06:19:10.381Z,38.50
2023-02-28T06:21:36.849Z,38.60
2023-02-28T06:24:03.325Z,38.50
2023-02-28T06:26:29.790Z,38.40
2023-02-28T06:28:56.311Z,38.30
2023-02-28T06:31:22.814Z,38.40
2023-02-28T06:33:49.342Z,38.50
2023-02-28T06:36:15.808Z,38.40
2023-02-28T06:38:42.290Z,38.50
2023-02-28T06:41:08.781Z,38.30
2023-02-28T06:43:35.289Z,38.40
2023-02-28T06:46:01.785Z,38.30
2023-02-28T06:48:28.309Z,38.20
2023-02-28T06:50:54.777Z,38.30
2023-02-28T06:53:21.264Z,38.30
2023-02-28T06:55:47.740Z,38.40
2023-02-28T06:58:14.201Z,38.20
2023-02-28T07:00:40.695Z,38.20
2023-02-28T07:03:07.169Z,38.20
2023-02-28T07:05:33.651Z,38.20
2023-02-28T07:08:00.146Z,38.30
2023-02-28T07:10:26.676Z,38.20
2023-02-28T07:12:53.174Z,38.20
2023-02-28T07:15:19.662Z,38.20
2023-02-28T07:17:46.122Z,38.10
2023-02-28T07:20:12.608Z,38.20
2023-02-28T07:22:39.093Z,38.10
2023-02-28T07:25:05.578Z,38.10
2023-02-28T07:27:32.049Z,38.20
2023-02-28T07:29:58.507Z,38.20
2023-02-28T07:32:25.055Z,38.20
2023-02-28T07:34:51.625Z,38.10
2023-02-28T07:37:18.133Z,38.30
2023-02-28T07:39:44.612Z,38.10
2023-02-28T07:42:11.081Z,38.20
2023-02-28T07:44:37.547Z,38.20
2023-02-28T07:47:04.049Z,38.20
2023-02-28T07:49:30.604Z,38.20
2023-02-28T07:51:57.062Z,38.10
2023-02-28T07:54:23.556Z,38.20
2023-02-28T07:56:50.023Z,38.20
2023-02-28T07:59:16.969Z,38.20
2023-02-28T08:01:43.476Z,38.10
2023-02-28T08:04:10.032Z,38.10
2023-02-28T08:06:36.515Z,38.10
2023-02-28T08:09:02.993Z,38.20
2023-02-28T08:11:29.662Z,38.10
2023-02-28T08:13:56.276Z,38.20
2023-02-28T08:16:22.871Z,38.10
2023-02-28T08:18:49.451Z,38.10
2023-02-28T08:21:15.942Z,38.00
2023-02-28T08:23:42.474Z,38.20
2023-02-28T08:26:08.957Z,38.20
2023-02-28T08:28:35.441Z,38.00
2023-02-28T08:31:02.133Z,38.10
2023-02-28T08:33:28.642Z,38.00
2023-02-28T08:35:55.201Z,38.20
2023-02-28T08:38:21.704Z,38.10
2023-02-28T08:40:48.179Z,38.00
2023-02-28T08:43:14.652Z,38.00
2023-02-28T08:45:41.180Z,38.00
2023-02-28T08:48:07.667Z,38.10
2023-02-28T08:50:34.135Z,38.00
2023-02-28T08:53:00.604Z,37.90
2023-02-28T08:55:27.082Z,38.20
2023-02-28T08:57:53.561Z,38.20
2023-02-28T09:00:20.075Z,38.10
2023-02-28T09:02:46.550Z,38.10
2023-02-28T09:05:13.074Z,38.10
2023-02-28T09:07:39.561Z,38.10
2023-02-28T09:10:06.111Z,37.90
2023-02-28T09:12:32.591Z,38.10
2023-02-28T09:14:59.058Z,38.10
2023-02-28T09:17:25.644Z,38.10
2023-02-28T09:19:57.490Z,38.20
2023-02-28T09:22:29.011Z,38.10
2023-02-28T09:24:55.513Z,38.00
2023-02-28T09:27:22.019Z,38.20
2023-02-28T09:29:48.480Z,38.00
2023-02-28T09:32:15.032Z,38.10
2023-02-28T09:34:41.564Z,38.00
2023-02-28T09:37:08.073Z,38.10
2023-02-28T09:39:34.561Z,38.10
2023-02-28T09:42:05.037Z,38.10
2023-02-28T09:44:31.541Z,38.00
2023-02-28T09:46:58.011Z,38.00
2023-02-28T09:49:24.474Z,38.20
2023-02-28T09:51:50.967Z,38.00
2023-02-28T09:54:17.448Z,38.20
2023-02-28T09:56:43.963Z,38.10
2023-02-28T09:59:10.468Z,38.00
2023-02-28T10:01:37.038Z,38.00
2023-02-28T10:04:03.564Z,38.00
2023-02-28T10:06:30.059Z,38.00
2023-02-28T10:08:56.556Z,38.00
2023-02-28T10:11:23.044Z,38.20
2023-02-28T10:13:49.541Z,37.90
2023-02-28T10:16:17.102Z,38.20
2023-02-28T10:18:43.609Z,38.10
2023-02-28T10:21:10.115Z,38.00
2023-02-28T10:23:36.684Z,38.00
2023-02-28T10:26:03.211Z,37.90
2023-02-28T10:28:29.689Z,37.80
2023-02-28T10:30:59.091Z,37.70
2023-02-28T10:33:25.650Z,37.80
2023-02-28T10:35:52.213Z,37.80
2023-02-28T10:38:18.706Z,37.80
2023-02-28T10:40:45.231Z,37.90
2023-02-28T10:43:11.703Z,38.00
2023-02-28T10:45:38.222Z,37.60
2023-02-28T10:48:04.739Z,37.60
2023-02-28T10:50:31.206Z,37.50
2023-02-28T10:52:57.685Z,37.70
2023-02-28T10:55:24.153Z,37.80
2023-02-28T10:57:50.667Z,37.40
2023-02-28T11:00:17.167Z,37.60
2023-02-28T11:02:43.906Z,37.70
2023-02-28T11:05:10.514Z,37.30
2023-02-28T11:07:50.450Z,37.70
2023-02-28T11:10:19.421Z,37.60
2023-02-28T11:12:52.237Z,37.40
2023-02-28T11:15:20.034Z,37.70
2023-02-28T11:17:46.605Z,37.60
2023-02-28T11:20:13.099Z,37.30
2023-02-28T11:22:39.569Z,37.20
2023-02-28T11:25:06.049Z,37.00
2023-02-28T11:27:32.548Z,37.20
2023-02-28T11:29:59.026Z,36.70
2023-02-28T11:32:25.625Z,36.80
2023-02-28T11:34:52.195Z,37.30
2023-02-28T11:37:18.688Z,37.20
2023-02-28T11:39:45.196Z,37.20
2023-02-28T11:42:11.753Z,36.90
2023-02-28T11:44:38.232Z,37.10
2023-02-28T11:47:04.744Z,37.20
2023-02-28T11:49:31.225Z,37.20
2023-02-28T11:51:57.733Z,36.90
2023-02-28T11:54:24.205Z,37.10
2023-02-28T11:56:50.711Z,37.10
2023-02-28T11:59:17.190Z,36.80
2023-02-28T12:01:43.694Z,36.90
2023-02-28T12:04:11.125Z,36.90
2023-02-28T12:06:37.631Z,36.80
2023-02-28T12:09:04.120Z,36.80
2023-02-28T12:11:31.003Z,37.00
2023-02-28T12:13:57.649Z,36.80
2023-02-28T12:16:24.138Z,37.00
2023-02-28T12:18:50.647Z,37.00
2023-02-28T12:21:17.126Z,36.70
2023-02-28T12:23:43.608Z,37.00
2023-02-28T12:26:10.073Z,37.00
2023-02-28T12:28:36.571Z,36.60
2023-02-28T12:31:03.064Z,36.60
2023-02-28T12:33:30.591Z,36.60
2023-02-28T12:35:57.175Z,36.90
2023-02-28T12:38:23.739Z,36.60
2023-02-28T12:40:50.261Z,36.90
2023-02-28T12:43:16.795Z,36.80
2023-02-28T12:45:43.412Z,37.10
2023-02-28T12:48:09.963Z,37.10
2023-02-28T12:50:36.416Z,36.80
2023-02-28T12:53:02.892Z,37.20
2023-02-28T12:55:29.363Z,37.00
2023-02-28T12:57:55.846Z,37.00
2023-02-28T13:00:22.327Z,37.10
2023-02-28T13:02:48.842Z,37.10
2023-02-28T13:05:15.309Z,36.80
2023-02-28T13:07:41.814Z,37.30
2023-02-28T13:10:08.284Z,37.20
2023-02-28T13:12:34.782Z,37.00
2023-02-28T13:15:01.264Z,37.00
2023-02-28T13:17:27.774Z,37.10
2023-02-28T13:19:54.278Z,37.10
2023-02-28T13:22:20.753Z,37.30
2023-02-28T13:24:47.250Z,37.40
2023-02-28T13:27:13.727Z,37.20
2023-02-28T13:29:40.244Z,37.20
2023-02-28T13:32:06.998Z,37.30
2023-02-28T13:34:33.639Z,37.30
2023-02-28T13:37:00.136Z,37.30
2023-02-28T13:39:26.655Z,37.20
2023-02-28T13:41:53.134Z,37.20
2023-02-28T13:44:19.637Z,37.10
2023-02-28T13:46:46.128Z,37.40
2023-02-28T13:49:12.655Z,37.50
2023-02-28T13:51:39.134Z,37.40
2023-02-28T13:54:05.615Z,37.50
2023-02-28T13:56:32.105Z,37.40
2023-02-28T13:58:58.585Z,37.40
2023-02-28T14:01:25.074Z,37.70
2023-02-28T14:03:51.551Z,37.70
2023-02-28T14:06:18.053Z,37.60
2023-02-28T14:08:44.662Z,37.60
2023-02-28T14:11:11.155Z,37.50
2023-02-28T14:13:41.298Z,37.60
2023-02-28T14:16:07.823Z,37.70
2023-02-28T14:18:34.308Z,37.70
2023-02-28T14:21:00.784Z,37.80
2023-02-28T14:23:27.272Z,37.80
2023-02-28T14:25:53.748Z,37.70
2023-02-28T14:28:20.224Z,37.80
2023-02-28T14:30:46.732Z,37.80
2023-02-28T14:33:13.212Z,37.80
2023-02-28T14:35:39.709Z,37.70
2023-02-28T14:38:06.184Z,37.80
2023-02-28T14:40:32.709Z,38.00
2023-02-28T14:42:59.196Z,38.20
2023-02-28T14:45:25.721Z,38.10
2023-02-28T14:47:52.209Z,37.90
2023-02-28T14:50:18.730Z,38.10
2023-02-28T14:52:45.217Z,38.10
2023-02-28T14:55:11.736Z,38.00
2023-02-28T14:57:38.510Z,38.30
2023-02-28T15:00:05.046Z,38.00
2023-02-28T15:02:37.670Z,38.20
2023-02-28T15:05:05.340Z,38.00
2023-02-28T15:07:31.852Z,38.00
2023-02-28T15:09:59.269Z,38.10
2023-02-28T15:14:53.179Z,38.00
2023-02-28T15:17:19.918Z,38.00
2023-02-28T15:19:46.445Z,38.20
2023-02-28T15:22:13.008Z,38.10
2023-02-28T15:24:39.510Z,38.10
2023-02-28T15:27:05.980Z,38.10
2023-02-28T15:29:32.436Z,38.20
2023-02-28T15:31:58.977Z,38.20
2023-02-28T15:34:28.521Z,38.20
2023-02-28T15:36:59.940Z,38.20
2023-02-28T15:39:26.402Z,37.90
2023-02-28T15:41:53.002Z,37.70
2023-02-28T15:44:19.495Z,36.60
2023-02-28T15:46:46.008Z,35.70
2023-02-28T15:49:12.492Z,35.50
2023-02-28T15:51:39.011Z,35.30
2023-02-28T15:54:05.525Z,35.60
2023-02-28T15:56:32.029Z,36.20
2023-02-28T15:58:58.541Z,36.60
2023-02-28T16:01:25.054Z,36.80
2023-02-28T16:03:51.539Z,36.80
2023-02-28T16:06:18.071Z,37.20
2023-02-28T16:08:44.579Z,37.40
2023-02-28T16:11:11.090Z,37.30
2023-02-28T16:13:37.567Z,37.50
2023-02-28T16:16:04.170Z,37.20
2023-02-28T16:18:30.689Z,37.70
2023-02-28T16:20:57.177Z,37.60
2023-02-28T16:23:23.602Z,37.80
2023-02-28T16:25:50.341Z,37.70
2023-02-28T16:28:16.828Z,38.00
2023-02-28T16:30:43.394Z,38.00
2023-02-28T16:33:11.329Z,38.10
2023-02-28T16:35:37.827Z,37.80
2023-02-28T16:38:04.299Z,38.00
2023-02-28T16:40:30.808Z,37.90
2023-02-28T16:42:57.415Z,38.00
2023-02-28T16:45:23.911Z,38.10
2023-02-28T16:47:50.410Z,38.10
2023-02-28T16:50:16.877Z,37.80
2023-02-28T16:52:43.368Z,38.00
2023-02-28T16:55:09.846Z,38.20
2023-02-28T16:57:36.330Z,38.40
2023-02-28T17:00:02.811Z,38.30
2023-02-28T17:02:29.507Z,38.30
2023-02-28T17:04:56.044Z,38.20
2023-02-28T17:07:22.531Z,38.30
2023-02-28T17:09:49.039Z,38.50
2023-02-28T17:12:15.551Z,38.40
2023-02-28T17:14:42.036Z,38.40
2023-02-28T17:17:08.545Z,38.50
2023-02-28T17:19:35.040Z,38.30
2023-02-28T17:22:01.538Z,38.40
2023-02-28T17:24:31.142Z,38.20
2023-02-28T17:26:57.889Z,38.50
2023-02-28T17:29:24.371Z,38.50
2023-02-28T17:31:50.942Z,38.50
2023-02-28T17:34:17.458Z,38.20
2023-02-28T17:36:43.977Z,38.30
2023-02-28T17:39:10.464Z,38.50
2023-02-28T17:41:36.953Z,38.50
2023-02-28T17:44:03.432Z,38.50
2023-02-28T17:46:30.358Z,38.50
2023-02-28T17:48:56.987Z,38.60
2023-02-28T17:51:23.526Z,38.50
2023-02-28T17:53:50.016Z,38.60
2023-02-28T17:56:16.521Z,38.50
2023-02-28T17:58:43.021Z,38.70
2023-02-28T18:01:09.498Z,38.50
2023-02-28T18:03:35.980Z,38.60
2023-02-28T18:06:02.457Z,38.70
2023-02-28T18:08:28.935Z,38.60
2023-02-28T18:10:55.390Z,38.50
2023-02-28T18:13:21.888Z,38.60
2023-02-28T18:15:48.438Z,38.70
2023-02-28T18:18:15.030Z,38.70
2023-02-28T18:20:41.501Z,38.50
2023-02-28T18:23:07.984Z,38.30
2023-02-28T18:25:34.633Z,38.70
2023-02-28T18:28:01.145Z,38.60
2023-02-28T18:30:27.618Z,38.70
2023-02-28T18:32:54.159Z,38.70
2023-02-28T18:35:21.149Z,38.70
2023-02-28T18:37:47.699Z,38.70
2023-02-28T18:40:14.185Z,38.80
2023-02-28T18:42:40.703Z,38.80
2023-02-28T18:45:11.525Z,38.80
2023-02-28T18:47:38.026Z,38.70
2023-02-28T18:50:04.494Z,38.80
2023-02-28T18:52:30.988Z,38.80
2023-02-28T18:54:57.456Z,38.90
2023-02-28T18:57:23.949Z,38.80
2023-02-28T18:59:50.374Z,38.90
2023-02-28T19:02:16.852Z,38.90
2023-02-28T19:04:47.513Z,38.80
2023-02-28T19:07:13.987Z,38.80
2023-02-28T19:09:40.473Z,38.80
2023-02-28T19:12:06.956Z,38.80
2023-02-28T19:14:33.453Z,38.90
2023-02-28T19:16:59.930Z,38.80
2023-02-28T19:19:29.509Z,38.80
2023-02-28T19:21:56.331Z,38.90
2023-02-28T19:24:22.863Z,38.70
2023-02-28T19:26:49.345Z,38.80
2023-02-28T19:29:15.835Z,38.80
2023-02-28T19:31:42.321Z,38.90
2023-02-28T19:34:08.831Z,38.90
2023-02-28T19:36:35.281Z,38.90
2023-02-28T19:39:01.768Z,38.90
2023-02-28T19:41:28.503Z,39.00
2023-02-28T19:43:55.146Z,38.90
2023-02-28T19:46:21.662Z,38.90
2023-02-28T19:48:48.157Z,38.90
2023-02-28T19:51:14.775Z,38.90
2023-02-28T19:53:41.367Z,39.00
2023-02-28T19:56:07.845Z,38.70
2023-02-28T19:58:34.366Z,38.80
2023-02-28T20:01:01.063Z,38.80
2023-02-28T20:03:27.662Z,38.80
2023-02-28T20:05:54.138Z,38.90
2023-02-28T20:08:20.631Z,38.80
2023-02-28T20:10:47.113Z,38.80
2023-02-28T20:13:14.339Z,38.90
2023-02-28T20:15:40.861Z,38.80
2023-02-28T20:18:07.354Z,38.80
2023-02-28T20:20:35.560Z,38.70
2023-02-28T20:23:02.037Z,38.80
2023-02-28T20:25:28.542Z,38.80
2023-02-28T20:27:55.038Z,38.70
2023-02-28T20:30:21.531Z,38.70
2023-02-28T20:32:53.772Z,38.80
2023-02-28T20:35:20.334Z,38.70
2023-02-28T20:37:46.869Z,38.70
2023-02-28T20:40:13.395Z,38.70
2023-02-28T20:42:39.865Z,38.80
2023-02-28T20:45:06.350Z,38.70
2023-02-28T20:47:32.815Z,38.70
2023-02-28T20:49:59.304Z,38.80
2023-02-28T20:52:25.795Z,38.50
2023-02-28T20:54:52.320Z,38.80
2023-02-28T20:57:18.804Z,38.70
2023-02-28T20:59:45.325Z,38.70
2023-02-28T21:02:11.812Z,38.70
2023-02-28T21:04:38.304Z,38.80
2023-02-28T21:07:05.573Z,38.70
2023-02-28T21:09:32.097Z,38.70
2023-02-28T21:11:58.565Z,38.60
2023-02-28T21:14:25.070Z,38.80
2023-02-28T21:16:51.559Z,38.60
2023-02-28T21:19:18.024Z,38.80
2023-02-28T21:21:44.508Z,38.70
2023-02-28T21:24:11.003Z,38.70
2023-02-28T21:26:37.476Z,38.70
2023-02-28T21:29:03.979Z,38.70
2023-02-28T21:31:30.466Z,38.80
2023-02-28T21:33:56.927Z,38.70
2023-02-28T21:36:23.390Z,38.70
2023-02-28T21:38:53.622Z,38.80
2023-02-28T21:41:20.099Z,38.60
2023-02-28T21:43:46.568Z,38.70
2023-02-28T21:46:13.135Z,38.60
2023-02-28T21:48:39.674Z,38.60
2023-02-28T21:51:06.131Z,38.60
2023-02-28T21:53:32.625Z,38.70
2023-02-28T21:55:59.105Z,38.60
2023-02-28T21:58:25.596Z,38.60
2023-02-28T22:00:52.068Z,38.70
2023-02-28T22:03:18.534Z,38.60
2023-02-28T22:05:45.016Z,38.80
2023-02-28T22:08:11.485Z,38.70
2023-02-28T22:10:37.974Z,38.60
2023-02-28T22:13:04.473Z,38.70
2023-02-28T22:15:35.646Z,38.80
2023-02-28T22:18:02.108Z,38.60
2023-02-28T22:20:28.798Z,38.60
2023-02-28T22:22:55.282Z,38.70
2023-02-28T22:25:23.652Z,38.70
2023-02-28T22:27:50.111Z,38.70
2023-02-28T22:30:16.608Z,38.70
2023-02-28T22:32:43.066Z,38.60
2023-02-28T22:35:11.674Z,38.70
2023-02-28T22:37:38.162Z,38.60
2023-02-28T22:40:05.654Z,38.70
2023-02-28T22:42:32.135Z,38.50
2023-02-28T22:44:58.625Z,38.70
2023-02-28T22:47:25.132Z,38.50
2023-02-28T22:49:51.614Z,38.60
2023-02-28T22:52:18.079Z,38.70
2023-02-28T22:54:44.585Z,38.60
2023-02-28T22:57:11.047Z,38.60
2023-02-28T22:59:37.540Z,38.60
2023-02-28T23:02:05.126Z,38.60
2023-02-28T23:04:31.646Z,38.50
2023-02-28T23:06:58.147Z,38.60
2023-02-28T23:09:24.627Z,38.60
2023-02-28T23:11:51.182Z,38.60
2023-02-28T23:14:17.659Z,38.60
2023-02-28T23:16:44.185Z,38.60
2023-02-28T23:19:10.779Z,38.70
2023-02-28T23:21:37.278Z,38.60
2023-02-28T23:24:03.781Z,38.60
2023-02-28T23:26:30.534Z,38.60
2023-02-28T23:28:57.165Z,38.60
2023-02-28T23:31:23.726Z,38.60
2023-02-28T23:33:50.207Z,38.70
2023-02-28T23:36:16.704Z,38.50
2023-02-28T23:38:43.184Z,38.50
2023-02-28T23:41:09.665Z,38.60
2023-02-28T23:43:36.140Z,38.60
2023-02-28T23:46:02.669Z,38.60
2023-02-28T23:48:29.167Z,38.60
2023-02-28T23:50:55.660Z,38.60
2023-02-28T23:53:22.137Z,38.50
2023-02-28T23:55:48.638Z,38.60
2023-02-28T23:58:15.137Z,38.60
